createdAt,value
2023-05-17T00:00:06.062Z,9.4
2023-05-17T00:01:06.454Z,9.4
2023-05-17T00:02:06.583Z,9.4
2023-05-17T00:03:07.074Z,9.4
2023-05-17T00:04:07.098Z,9.4
2023-05-17T00:05:06.149Z,9
2023-05-17T00:06:06.645Z,9.4
2023-05-17T00:07:06.485Z,9.4
2023-05-17T00:09:05.240Z,9.3
2023-05-17T00:10:06.439Z,9.3
2023-05-17T00:11:06.385Z,9.3
2023-05-17T00:14:06.079Z,9.3
2023-05-17T00:15:05.204Z,9.3
2023-05-17T00:16:06.152Z,9.3
2023-05-17T00:17:07.010Z,9.3
2023-05-17T00:18:07.217Z,9.3
2023-05-17T00:19:06.362Z,9.3
2023-05-17T00:20:06.535Z,9.3
2023-05-17T00:21:06.461Z,9.3
2023-05-17T00:22:06.077Z,9
2023-05-17T00:23:06.486Z,9.2
2023-05-17T00:24:06.554Z,9.3
2023-05-17T00:25:06.920Z,9.2
2023-05-17T00:26:06.832Z,9.2
2023-05-17T00:27:06.827Z,9.2
2023-05-17T00:28:06.988Z,9
2023-05-17T00:29:05.964Z,9.2
2023-05-17T00:30:06.538Z,9.2
2023-05-17T00:31:06.049Z,9.2
2023-05-17T00:32:06.329Z,9.2
2023-05-17T00:33:06.742Z,9.2
2023-05-17T00:34:06.989Z,9.2
2023-05-17T00:35:06.378Z,9.2
2023-05-17T00:36:06.510Z,9.2
2023-05-17T00:37:06.143Z,9.2
2023-05-17T00:38:05.769Z,9.2
2023-05-17T00:39:06.365Z,9
2023-05-17T00:40:06.712Z,9.2
2023-05-17T00:41:05.449Z,9.2
2023-05-17T00:42:06.412Z,9.2
2023-05-17T00:43:06.569Z,9.2
2023-05-17T00:44:06.438Z,9.2
2023-05-17T00:45:06.842Z,9.1
2023-05-17T00:46:06.411Z,9.1
2023-05-17T00:47:06.469Z,9.1
2023-05-17T00:48:07.150Z,9.1
2023-05-17T00:49:06.454Z,9.1
2023-05-17T00:50:06.400Z,9.1
2023-05-17T00:51:06.444Z,9.1
2023-05-17T00:52:06.579Z,9
2023-05-17T00:55:07.096Z,9
2023-05-17T00:56:06.255Z,9
2023-05-17T00:57:07.067Z,9
2023-05-17T01:01:06.232Z,9
2023-05-17T01:02:06.683Z,9
2023-05-17T01:03:07.196Z,9
2023-05-17T01:04:07.752Z,9
2023-05-17T01:05:06.151Z,8.9
2023-05-17T01:06:06.722Z,9
2023-05-17T01:07:05.920Z,8.9
2023-05-17T01:08:05.353Z,8.9
2023-05-17T01:09:06.535Z,8.9
2023-05-17T01:10:06.163Z,8.9
2023-05-17T01:11:06.959Z,8.9
2023-05-17T01:12:06.986Z,8.9
2023-05-17T01:13:05.988Z,9
2023-05-17T01:14:06.941Z,8.9
2023-05-17T01:15:07.234Z,8.8
2023-05-17T01:16:06.798Z,8.9
2023-05-17T01:18:06.936Z,8.8
2023-05-17T01:19:06.987Z,8.8
2023-05-17T01:20:07.628Z,8.8
2023-05-17T01:21:06.782Z,8.8
2023-05-17T01:22:06.582Z,8.8
2023-05-17T01:23:06.656Z,8.8
2023-05-17T01:24:07.123Z,8.8
2023-05-17T01:27:06.064Z,8.8
2023-05-17T01:28:06.450Z,8.8
2023-05-17T01:29:06.457Z,8.8
2023-05-17T01:30:06.531Z,8.8
2023-05-17T01:31:05.872Z,8.8
2023-05-17T01:32:06.543Z,8.7
2023-05-17T01:33:07.105Z,8.8
2023-05-17T01:34:07.516Z,8.7
2023-05-17T01:35:06.443Z,8.8
2023-05-17T01:36:06.688Z,8.8
2023-05-17T01:37:05.397Z,8.8
2023-05-17T01:38:06.598Z,8.8
2023-05-17T01:39:06.356Z,8.7
2023-05-17T01:40:06.450Z,8.7
2023-05-17T01:41:06.489Z,8.7
2023-05-17T01:42:06.548Z,8
2023-05-17T01:44:06.370Z,8.7
2023-05-17T01:45:06.340Z,8.7
2023-05-17T01:46:06.242Z,8.7
2023-05-17T01:50:06.194Z,8.6
2023-05-17T01:51:06.215Z,8.6
2023-05-17T01:52:06.348Z,8.6
2023-05-17T01:53:07.141Z,8.6
2023-05-17T01:54:06.636Z,8.6
2023-05-17T01:55:06.097Z,8.6
2023-05-17T01:56:07.078Z,8.6
2023-05-17T01:57:06.944Z,8.6
2023-05-17T01:59:06.544Z,8.5
2023-05-17T02:00:06.892Z,8.6
2023-05-17T02:01:06.466Z,8.6
2023-05-17T02:02:07.131Z,8.5
2023-05-17T02:03:05.881Z,8.5
2023-05-17T02:04:06.289Z,8.5
2023-05-17T02:05:06.953Z,8
2023-05-17T02:06:06.121Z,8.5
2023-05-17T02:07:06.398Z,8.4
2023-05-17T02:08:06.725Z,8
2023-05-17T02:09:05.947Z,8.4
2023-05-17T02:10:06.907Z,8.4
2023-05-17T02:11:06.657Z,8.4
2023-05-17T02:12:06.906Z,8.4
2023-05-17T02:14:06.692Z,8.4
2023-05-17T02:15:06.789Z,8.4
2023-05-17T02:16:06.292Z,8.4
2023-05-17T02:17:06.536Z,8.4
2023-05-17T02:18:06.981Z,8.4
2023-05-17T02:19:06.672Z,8.4
2023-05-17T02:20:06.834Z,8.4
2023-05-17T02:21:06.263Z,8.4
2023-05-17T02:22:06.399Z,8.4
2023-05-17T02:23:06.610Z,8.4
2023-05-17T02:24:06.980Z,8.4
2023-05-17T02:25:06.394Z,8.4
2023-05-17T02:26:06.277Z,8.4
2023-05-17T02:27:06.690Z,8.3
2023-05-17T02:29:06.253Z,8.3
2023-05-17T02:30:06.771Z,8
2023-05-17T02:31:06.269Z,8.3
2023-05-17T02:32:06.408Z,8.3
2023-05-17T02:33:06.895Z,8.3
2023-05-17T02:34:07.353Z,8.3
2023-05-17T02:35:06.149Z,8.3
2023-05-17T02:36:06.493Z,8.2
2023-05-17T02:37:06.968Z,8.2
2023-05-17T02:38:06.297Z,8.2
2023-05-17T02:39:05.511Z,8.2
2023-05-17T02:40:06.221Z,8.2
2023-05-17T02:41:06.271Z,8.2
2023-05-17T02:43:07.130Z,8
2023-05-17T02:44:06.518Z,8.2
2023-05-17T02:45:06.556Z,8.2
2023-05-17T02:46:06.225Z,8
2023-05-17T02:47:07.007Z,8.2
2023-05-17T02:48:06.263Z,8.2
2023-05-17T02:49:06.899Z,8.2
2023-05-17T02:50:07.002Z,8.2
2023-05-17T02:51:06.116Z,8.1
2023-05-17T02:52:06.548Z,8.1
2023-05-17T02:53:07.078Z,8.1
2023-05-17T02:54:06.782Z,8.1
2023-05-17T02:55:06.934Z,8
2023-05-17T02:56:06.722Z,8.1
2023-05-17T02:57:06.618Z,8
2023-05-17T02:58:06.628Z,8.1
2023-05-17T02:59:06.859Z,8
2023-05-17T03:00:07.180Z,8
2023-05-17T03:01:06.176Z,8
2023-05-17T03:02:06.321Z,8
2023-05-17T03:03:07.147Z,8
2023-05-17T03:04:06.198Z,8
2023-05-17T03:07:09.487Z,8
2023-05-17T03:08:06.704Z,8
2023-05-17T03:09:06.730Z,8
2023-05-17T03:10:06.485Z,8
2023-05-17T03:11:05.716Z,8
2023-05-17T03:12:06.624Z,8
2023-05-17T03:13:06.576Z,8
2023-05-17T03:14:06.332Z,8
2023-05-17T03:15:06.436Z,8
2023-05-17T03:16:06.557Z,8
2023-05-17T03:20:06.537Z,7.9
2023-05-17T03:21:06.149Z,8
2023-05-17T03:22:06.305Z,7.9
2023-05-17T03:23:06.412Z,8
2023-05-17T03:24:06.281Z,8
2023-05-17T03:25:06.055Z,7.9
2023-05-17T03:26:06.952Z,7.9
2023-05-17T03:27:06.490Z,7.9
2023-05-17T03:29:06.388Z,7.9
2023-05-17T03:30:06.797Z,7.9
2023-05-17T03:31:06.337Z,7.9
2023-05-17T03:32:05.226Z,7.8
2023-05-17T03:33:06.360Z,7.9
2023-05-17T03:35:05.285Z,7.8
2023-05-17T03:36:06.084Z,7.8
2023-05-17T03:37:06.304Z,7.8
2023-05-17T03:38:05.213Z,7.8
2023-05-17T03:39:05.966Z,7.8
2023-05-17T03:40:06.977Z,7.8
2023-05-17T03:41:07.096Z,7.8
2023-05-17T03:42:06.763Z,7.8
2023-05-17T03:43:06.976Z,7.8
2023-05-17T03:44:06.192Z,7.8
2023-05-17T03:45:06.059Z,7.8
2023-05-17T03:46:06.799Z,7.8
2023-05-17T03:49:06.803Z,7.8
2023-05-17T03:50:06.781Z,7.8
2023-05-17T03:51:06.079Z,7.8
2023-05-17T03:52:06.704Z,7.8
2023-05-17T03:53:06.647Z,7.7
2023-05-17T03:56:06.199Z,7.7
2023-05-17T03:57:06.603Z,7.7
2023-05-17T03:58:06.838Z,7.8
2023-05-17T03:59:07.138Z,7.8
2023-05-17T04:00:06.352Z,7.8
2023-05-17T04:01:06.925Z,7.8
2023-05-17T04:02:06.182Z,7.7
2023-05-17T04:03:06.698Z,7.8
2023-05-17T04:04:05.763Z,7.7
2023-05-17T04:05:07.063Z,7.8
2023-05-17T04:07:05.415Z,7.7
2023-05-17T04:08:06.920Z,7.7
2023-05-17T04:09:06.119Z,7.7
2023-05-17T04:10:05.367Z,7.7
2023-05-17T04:11:06.369Z,7.7
2023-05-17T04:12:06.940Z,7.7
2023-05-17T04:13:05.418Z,7.7
2023-05-17T04:14:06.245Z,7.7
2023-05-17T04:15:06.314Z,7.7
2023-05-17T04:16:05.820Z,7.7
2023-05-17T04:17:05.994Z,7.8
2023-05-17T04:20:06.166Z,7.7
2023-05-17T04:21:06.247Z,7.7
2023-05-17T04:22:06.051Z,7.7
2023-05-17T04:23:06.599Z,7.7
2023-05-17T04:24:06.983Z,7.7
2023-05-17T04:25:06.828Z,7.7
2023-05-17T04:26:06.198Z,7.8
2023-05-17T04:27:07.807Z,7.7
2023-05-17T04:30:06.447Z,7.7
2023-05-17T04:31:06.352Z,7.7
2023-05-17T04:32:06.805Z,7.7
2023-05-17T04:33:07.269Z,7.7
2023-05-17T04:34:06.139Z,7.7
2023-05-17T04:35:06.773Z,7.7
2023-05-17T04:36:05.818Z,7.7
2023-05-17T04:37:06.597Z,7.7
2023-05-17T04:38:06.629Z,7.7
2023-05-17T04:39:05.998Z,7.7
2023-05-17T04:40:06.914Z,7.7
2023-05-17T04:41:05.952Z,7.7
2023-05-17T04:42:06.604Z,7.7
2023-05-17T04:43:06.841Z,7.7
2023-05-17T04:44:06.636Z,7.7
2023-05-17T04:45:05.750Z,7.7
2023-05-17T04:46:06.831Z,7.7
2023-05-17T04:49:06.627Z,7.7
2023-05-17T04:50:06.705Z,7.7
2023-05-17T04:51:06.780Z,7.7
2023-05-17T04:52:08.329Z,7.7
2023-05-17T04:55:06.192Z,7.8
2023-05-17T04:56:06.493Z,7.7
2023-05-17T04:57:06.537Z,7.8
2023-05-17T04:58:06.698Z,7.8
2023-05-17T04:59:06.881Z,7.8
2023-05-17T05:00:06.360Z,7.8
2023-05-17T05:01:06.838Z,7.8
2023-05-17T05:02:05.930Z,7.8
2023-05-17T05:03:06.792Z,7.8
2023-05-17T05:04:07.397Z,7.8
2023-05-17T05:05:06.638Z,7.8
2023-05-17T05:06:06.758Z,7.8
2023-05-17T05:07:06.907Z,7.8
2023-05-17T05:08:06.390Z,7.8
2023-05-17T05:09:05.273Z,7
2023-05-17T05:10:06.620Z,7.8
2023-05-17T05:11:06.108Z,7.9
2023-05-17T05:12:05.137Z,7.8
2023-05-17T05:13:06.188Z,7
2023-05-17T05:15:05.162Z,7.8
2023-05-17T05:16:05.947Z,7.8
2023-05-17T05:17:06.045Z,7.9
2023-05-17T05:18:07.203Z,7.9
2023-05-17T05:19:06.829Z,7.8
2023-05-17T05:20:07.867Z,7.8
2023-05-17T05:21:06.083Z,7.9
2023-05-17T05:22:06.376Z,7.8
2023-05-17T05:23:06.977Z,7.8
2023-05-17T05:26:05.934Z,7.9
2023-05-17T05:27:09.100Z,8
2023-05-17T05:29:06.710Z,8
2023-05-17T05:30:05.953Z,7.9
2023-05-17T05:31:06.746Z,8
2023-05-17T05:32:06.893Z,8
2023-05-17T05:33:07.397Z,8
2023-05-17T05:34:06.780Z,8
2023-05-17T05:38:05.792Z,8
2023-05-17T05:39:08.558Z,8
2023-05-17T05:40:06.533Z,8
2023-05-17T05:41:05.567Z,8
2023-05-17T05:42:06.665Z,8.1
2023-05-17T05:43:07.474Z,8.1
2023-05-17T05:44:06.410Z,8.1
2023-05-17T05:45:06.663Z,8.1
2023-05-17T05:46:06.433Z,8.2
2023-05-17T05:47:06.592Z,8.2
2023-05-17T05:48:06.476Z,8.2
2023-05-17T05:50:06.430Z,8.3
2023-05-17T05:51:06.377Z,8.3
2023-05-17T05:52:05.961Z,8.2
2023-05-17T05:53:21.878Z,8.2
2023-05-17T05:55:06.502Z,8.3
2023-05-17T05:56:06.331Z,8.3
2023-05-17T05:57:06.117Z,8.3
2023-05-17T05:58:06.359Z,8.3
2023-05-17T05:59:06.668Z,8.4
2023-05-17T06:01:09.022Z,8.4
2023-05-17T06:04:06.093Z,8.4
2023-05-17T06:05:05.351Z,8.5
2023-05-17T06:06:06.670Z,8.4
2023-05-17T06:07:06.308Z,8.4
2023-05-17T06:08:04.981Z,8.5
2023-05-17T06:09:06.128Z,8.5
2023-05-17T06:10:05.972Z,8.5
2023-05-17T06:11:05.092Z,8.5
2023-05-17T06:12:05.991Z,8.6
2023-05-17T06:13:07.057Z,8.6
2023-05-17T06:15:06.157Z,8.6
2023-05-17T06:16:06.828Z,8.7
2023-05-17T06:17:06.718Z,8.7
2023-05-17T06:18:07.380Z,8.7
2023-05-17T06:19:07.114Z,8.7
2023-05-17T06:20:07.222Z,8
2023-05-17T06:21:06.855Z,8
2023-05-17T06:22:07.016Z,8.8
2023-05-17T06:23:06.392Z,8.8
2023-05-17T06:24:09.209Z,8.9
2023-05-17T06:26:06.766Z,9.1
2023-05-17T06:27:06.864Z,9.2
2023-05-17T06:28:06.030Z,9.1
2023-05-17T06:29:06.432Z,9.2
2023-05-17T06:30:09.824Z,9.2
2023-05-17T06:33:07.164Z,9.3
2023-05-17T06:34:05.977Z,9.3
2023-05-17T06:35:06.897Z,9.3
2023-05-17T06:36:07.838Z,9.3
2023-05-17T06:37:05.845Z,9
2023-05-17T06:38:06.687Z,9.4
2023-05-17T06:39:06.516Z,9.4
2023-05-17T06:40:19.599Z,9.4
2023-05-17T06:42:06.441Z,9.6
2023-05-17T06:43:07.099Z,9.6
2023-05-17T06:44:06.089Z,9.6
2023-05-17T06:45:06.594Z,9.6
2023-05-17T06:46:06.245Z,9.8
2023-05-17T06:47:06.552Z,9.8
2023-05-17T06:50:06.533Z,9.9
2023-05-17T06:51:07.109Z,10
2023-05-17T06:52:05.939Z,10
2023-05-17T06:53:06.198Z,10
2023-05-17T06:54:06.255Z,10
2023-05-17T06:55:06.709Z,10.1
2023-05-17T06:56:07.037Z,10.1
2023-05-17T06:57:06.351Z,10.2
2023-05-17T06:58:06.560Z,10.2
2023-05-17T06:59:06.775Z,10.3
2023-05-17T07:00:06.083Z,10.3
2023-05-17T07:01:05.404Z,10.4
2023-05-17T07:02:06.691Z,10
2023-05-17T07:03:06.348Z,10.4
2023-05-17T07:04:05.384Z,10.4
2023-05-17T07:05:06.093Z,10.4
2023-05-17T07:06:06.167Z,10.4
2023-05-17T07:07:06.503Z,10.4
2023-05-17T07:08:07.005Z,10.4
2023-05-17T07:09:06.885Z,10.4
2023-05-17T07:10:06.805Z,10.4
2023-05-17T07:14:06.715Z,10.4
2023-05-17T07:15:07.046Z,10.4
2023-05-17T07:16:07.027Z,10.4
2023-05-17T07:17:06.752Z,10.4
2023-05-17T07:18:07.107Z,10.4
2023-05-17T07:19:07.257Z,10.4
2023-05-17T07:20:06.816Z,10.5
2023-05-17T07:21:06.366Z,10.5
2023-05-17T07:22:06.560Z,10.5
2023-05-17T07:23:06.942Z,10.5
2023-05-17T07:27:06.084Z,10.5
2023-05-17T07:28:06.591Z,10.6
2023-05-17T07:29:06.433Z,10.6
2023-05-17T07:30:05.853Z,10.7
2023-05-17T07:31:06.146Z,10.7
2023-05-17T07:32:06.273Z,10.7
2023-05-17T07:35:06.533Z,10.7
2023-05-17T07:36:05.614Z,10.7
2023-05-17T07:37:06.421Z,10.7
2023-05-17T07:38:06.564Z,10.7
2023-05-17T07:39:06.516Z,10.7
2023-05-17T07:40:06.517Z,11
2023-05-17T07:41:06.346Z,10.7
2023-05-17T07:42:07.776Z,10.7
2023-05-17T07:44:05.968Z,10.8
2023-05-17T07:45:06.734Z,10.8
2023-05-17T07:46:06.381Z,10.8
2023-05-17T07:47:06.572Z,10.8
2023-05-17T07:48:06.396Z,10.9
2023-05-17T07:49:06.647Z,10.9
2023-05-17T07:50:06.641Z,10.9
2023-05-17T07:51:06.214Z,10.9
2023-05-17T07:52:06.854Z,11
2023-05-17T07:53:06.934Z,11
2023-05-17T07:54:07.146Z,11
2023-05-17T07:55:06.430Z,11
2023-05-17T07:56:07.190Z,11.1
2023-05-17T07:57:05.229Z,11.2
2023-05-17T07:58:06.337Z,11.2
2023-05-17T08:00:05.259Z,11.4
2023-05-17T08:01:07.206Z,11.5
2023-05-17T08:02:06.970Z,11.6
2023-05-17T08:03:07.089Z,11.7
2023-05-17T08:04:06.771Z,11.8
2023-05-17T08:05:06.661Z,11.9
2023-05-17T08:06:06.866Z,12
2023-05-17T08:10:06.818Z,12.4
2023-05-17T08:11:07.280Z,12.5
2023-05-17T08:12:06.622Z,12.5
2023-05-17T08:13:06.716Z,12.5
2023-05-17T08:14:06.609Z,12.6
2023-05-17T08:15:06.755Z,13
2023-05-17T08:16:15.232Z,12.7
2023-05-17T08:18:09.406Z,12.7
2023-05-17T08:21:06.650Z,13
2023-05-17T08:22:06.162Z,13.1
2023-05-17T08:23:06.606Z,13.1
2023-05-17T08:24:08.533Z,13.3
2023-05-17T08:25:07.127Z,13.3
2023-05-17T08:28:06.882Z,13.3
2023-05-17T08:29:05.653Z,13.2
2023-05-17T08:30:14.772Z,13
2023-05-17T08:31:06.432Z,13.2
2023-05-17T08:32:05.486Z,13.2
2023-05-17T08:33:06.761Z,13.1
2023-05-17T08:34:06.241Z,13
2023-05-17T08:35:06.438Z,13
2023-05-17T08:36:06.404Z,13
2023-05-17T08:37:06.316Z,13
2023-05-17T08:40:06.422Z,13
2023-05-17T08:41:06.120Z,13
2023-05-17T08:42:06.617Z,13
2023-05-17T08:43:06.808Z,13
2023-05-17T08:44:05.742Z,13
2023-05-17T08:45:06.157Z,13.1
2023-05-17T08:46:06.425Z,13.1
2023-05-17T08:47:06.653Z,13.1
2023-05-17T08:48:07.043Z,13.1
2023-05-17T08:49:06.370Z,13.1
2023-05-17T08:50:06.525Z,13.1
2023-05-17T08:51:06.825Z,13.1
2023-05-17T08:52:06.952Z,13.2
2023-05-17T08:53:06.598Z,13.2
2023-05-17T08:54:06.885Z,13.2
2023-05-17T08:55:06.148Z,13.2
2023-05-17T08:56:06.586Z,13.1
2023-05-17T08:57:06.912Z,13.1
2023-05-17T08:58:06.115Z,13.2
2023-05-17T08:59:06.952Z,13.2
2023-05-17T09:00:07.084Z,13.2
2023-05-17T09:03:07.276Z,13.4
2023-05-17T09:04:06.803Z,14
2023-05-17T09:05:06.919Z,13.4
2023-05-17T09:06:07.167Z,13.4
2023-05-17T09:07:07.049Z,13.3
2023-05-17T09:08:06.799Z,13.3
2023-05-17T09:09:06.404Z,13.4
2023-05-17T09:10:06.652Z,13.4
2023-05-17T09:11:06.210Z,13.4
2023-05-17T09:12:06.732Z,13.4
2023-05-17T09:13:06.828Z,13.6
2023-05-17T09:14:06.283Z,13.6
2023-05-17T09:15:06.597Z,13.7
2023-05-17T09:17:06.389Z,13.8
2023-05-17T09:18:07.149Z,14
2023-05-17T09:19:07.911Z,14
2023-05-17T09:20:06.481Z,14.1
2023-05-17T09:21:06.657Z,14.2
2023-05-17T09:22:06.777Z,14.3
2023-05-17T09:23:06.802Z,14.4
2023-05-17T09:24:10.380Z,14.5
2023-05-17T09:26:06.318Z,14.6
2023-05-17T09:27:06.541Z,14.6
2023-05-17T09:28:06.868Z,14.6
2023-05-17T09:29:07.021Z,14.7
2023-05-17T09:30:06.135Z,14.7
2023-05-17T09:31:05.469Z,14.8
2023-05-17T09:32:06.181Z,14.8
2023-05-17T09:33:06.210Z,14.8
2023-05-17T09:34:05.541Z,14.8
2023-05-17T09:35:06.593Z,14.8
2023-05-17T09:36:06.219Z,14.8
2023-05-17T09:37:06.158Z,14.9
2023-05-17T09:38:06.542Z,15
2023-05-17T09:39:06.732Z,15
2023-05-17T09:41:06.098Z,15.1
2023-05-17T09:42:07.106Z,15.2
2023-05-17T09:43:07.040Z,15.2
2023-05-17T09:44:06.349Z,15.2
2023-05-17T09:45:06.741Z,15.2
2023-05-17T09:47:06.910Z,15.3
2023-05-17T09:48:06.208Z,15.4
2023-05-17T09:49:07.120Z,15.4
2023-05-17T09:52:06.076Z,15.5
2023-05-17T09:53:06.546Z,15.6
2023-05-17T09:54:05.977Z,15.6
2023-05-17T09:55:06.966Z,15.6
2023-05-17T09:56:05.815Z,15.6
2023-05-17T09:57:06.016Z,15.7
2023-05-17T09:58:06.828Z,15.8
2023-05-17T09:59:06.764Z,15.8
2023-05-17T10:00:06.583Z,15.8
2023-05-17T10:01:06.957Z,15.9
2023-05-17T10:03:06.437Z,16
2023-05-17T10:04:06.862Z,16
2023-05-17T10:07:06.251Z,16.2
2023-05-17T10:08:06.582Z,16.2
2023-05-17T10:09:06.365Z,16.4
2023-05-17T10:10:06.539Z,16.4
2023-05-17T10:11:06.983Z,16.3
2023-05-17T10:12:06.249Z,16.3
2023-05-17T10:13:06.422Z,16.2
2023-05-17T10:14:06.604Z,16.1
2023-05-17T10:15:07.041Z,16
2023-05-17T10:17:06.676Z,15.9
2023-05-17T10:19:07.184Z,15.5
2023-05-17T10:20:06.891Z,15.4
2023-05-17T10:21:05.490Z,15.2
2023-05-17T10:22:26.083Z,15.2
2023-05-17T10:24:06.301Z,15.2
2023-05-17T10:25:06.402Z,15.3
2023-05-17T10:26:06.234Z,14
2023-05-17T10:27:05.846Z,15.6
2023-05-17T10:28:06.558Z,15.6
2023-05-17T10:29:06.410Z,15.6
2023-05-17T10:30:06.230Z,15.4
2023-05-17T10:34:05.952Z,15.1
2023-05-17T10:35:16.388Z,15.1
2023-05-17T10:37:06.765Z,15.1
2023-05-17T10:38:06.995Z,15.1
2023-05-17T10:39:06.358Z,15.2
2023-05-17T10:40:06.446Z,15.2
2023-05-17T10:41:06.088Z,15.2
2023-05-17T10:42:16.579Z,15.2
2023-05-17T10:44:05.730Z,15.4
2023-05-17T10:45:07.033Z,15.5
2023-05-17T10:46:06.662Z,15.6
2023-05-17T10:47:05.878Z,15.7
2023-05-17T10:48:07.112Z,15.6
2023-05-17T10:50:06.731Z,15.4
2023-05-17T10:52:06.972Z,15.2
2023-05-17T10:53:06.620Z,15.1
2023-05-17T10:54:06.874Z,15.1
2023-05-17T10:55:06.583Z,15
2023-05-17T10:56:06.501Z,14
2023-05-17T10:57:08.903Z,14
2023-05-17T10:58:06.351Z,15
2023-05-17T10:59:06.278Z,15.1
2023-05-17T11:00:06.774Z,15.2
2023-05-17T11:01:06.229Z,15.2
2023-05-17T11:02:06.402Z,15.3
2023-05-17T11:03:06.818Z,15.2
2023-05-17T11:04:06.263Z,15.2
2023-05-17T11:07:12.459Z,15
2023-05-17T11:08:05.788Z,14.9
2023-05-17T11:09:06.491Z,14.8
2023-05-17T11:10:06.395Z,14.8
2023-05-17T11:11:06.358Z,14.8
2023-05-17T11:14:06.285Z,14.7
2023-05-17T11:15:08.357Z,14.7
2023-05-17T11:16:06.412Z,14.6
2023-05-17T11:17:06.622Z,14.7
2023-05-17T11:18:09.078Z,14.7
2023-05-17T11:19:06.677Z,14.7
2023-05-17T11:20:06.732Z,14.7
2023-05-17T11:21:06.888Z,14.7
2023-05-17T11:22:06.805Z,14.8
2023-05-17T11:23:06.974Z,14.8
2023-05-17T11:24:06.136Z,14.8
2023-05-17T11:25:06.563Z,14.8
2023-05-17T11:26:19.622Z,14.8
2023-05-17T11:28:06.163Z,13
2023-05-17T11:29:05.145Z,14.8
2023-05-17T11:30:06.445Z,14.9
2023-05-17T11:31:06.021Z,15
2023-05-17T11:32:05.040Z,15.1
2023-05-17T11:33:20.847Z,15.2
2023-05-17T11:34:06.849Z,15.3
2023-05-17T11:35:06.787Z,13
2023-05-17T11:36:06.986Z,15.6
2023-05-17T11:37:07.070Z,15.6
2023-05-17T11:38:06.053Z,15.6
2023-05-17T11:39:12.476Z,15.6
2023-05-17T11:41:13.064Z,15.6
2023-05-17T11:42:06.139Z,15.6
2023-05-17T11:43:06.784Z,15.6
2023-05-17T11:44:06.464Z,15.7
2023-05-17T11:45:07.096Z,15.6
2023-05-17T11:46:05.953Z,15.6
2023-05-17T11:47:06.576Z,15.7
2023-05-17T11:48:06.792Z,15.9
2023-05-17T11:49:06.856Z,15.9
2023-05-17T11:51:06.906Z,16
2023-05-17T11:52:05.765Z,15.9
2023-05-17T11:53:07.003Z,16
2023-05-17T11:54:06.326Z,15.9
2023-05-17T11:55:06.003Z,16
2023-05-17T11:56:06.652Z,16
2023-05-17T11:58:05.599Z,16
2023-05-17T11:59:06.949Z,15.9
2023-05-17T12:00:06.422Z,15.9
2023-05-17T12:01:06.310Z,16
2023-05-17T12:02:06.596Z,16
2023-05-17T12:03:06.955Z,16
2023-05-17T12:04:06.486Z,16
2023-05-17T12:05:06.737Z,15.9
2023-05-17T12:06:06.992Z,15.8
2023-05-17T12:07:06.236Z,15.8
2023-05-17T12:08:06.880Z,15.7
2023-05-17T12:09:06.466Z,15.7
2023-05-17T12:10:06.683Z,15.6
2023-05-17T12:12:06.250Z,15.6
2023-05-17T12:13:06.558Z,15.6
2023-05-17T12:14:06.914Z,15.6
2023-05-17T12:15:06.311Z,15.5
2023-05-17T12:16:06.377Z,15.4
2023-05-17T12:17:06.539Z,15.5
2023-05-17T12:18:06.380Z,15
2023-05-17T12:19:05.482Z,15.4
2023-05-17T12:20:06.851Z,15.2
2023-05-17T12:21:06.224Z,15.2
2023-05-17T12:22:05.217Z,15.2
2023-05-17T12:23:07.163Z,15.2
2023-05-17T12:24:07.045Z,15.2
2023-05-17T12:25:06.852Z,15.2
2023-05-17T12:29:06.846Z,15.3
2023-05-17T12:30:06.081Z,15.3
2023-05-17T12:31:06.460Z,15.4
2023-05-17T12:32:06.765Z,15.4
2023-05-17T12:33:07.135Z,15.4
2023-05-17T12:34:06.126Z,15.4
2023-05-17T12:35:06.583Z,15.4
2023-05-17T12:36:06.893Z,15.5
2023-05-17T12:37:06.554Z,15.5
2023-05-17T12:38:06.779Z,15.5
2023-05-17T12:39:06.685Z,15.5
2023-05-17T12:40:07.014Z,15
2023-05-17T12:41:06.153Z,15.5
2023-05-17T12:42:06.667Z,15.5
2023-05-17T12:43:06.778Z,15.5
2023-05-17T12:44:17.128Z,15.5
2023-05-17T12:46:08.261Z,15.5
2023-05-17T12:47:06.487Z,15.4
2023-05-17T12:48:05.924Z,15.4
2023-05-17T12:49:06.552Z,15.4
2023-05-17T12:50:06.514Z,15.4
2023-05-17T12:53:06.391Z,15.4
2023-05-17T12:54:05.925Z,15.4
2023-05-17T12:55:07.039Z,15.5
2023-05-17T12:58:06.335Z,15.6
2023-05-17T12:59:06.553Z,15.6
2023-05-17T13:00:06.282Z,15.6
2023-05-17T13:01:06.761Z,15.6
2023-05-17T13:02:06.149Z,15.7
2023-05-17T13:03:06.740Z,15.7
2023-05-17T13:04:07.420Z,15.7
2023-05-17T13:05:06.193Z,15.8
2023-05-17T13:06:06.512Z,15.8
2023-05-17T13:07:07.088Z,15.8
2023-05-17T13:11:06.157Z,15.7
2023-05-17T13:12:06.511Z,15.6
2023-05-17T13:13:06.847Z,15.6
2023-05-17T13:14:06.113Z,15.5
2023-05-17T13:15:05.215Z,15.6
2023-05-17T13:16:07.004Z,15.5
2023-05-17T13:17:06.982Z,15.4
2023-05-17T13:18:07.276Z,15.4
2023-05-17T13:19:06.251Z,15.4
2023-05-17T13:20:10.646Z,15.3
2023-05-17T13:22:06.655Z,15.3
2023-05-17T13:23:06.815Z,15.4
2023-05-17T13:24:06.973Z,15.4
2023-05-17T13:25:06.253Z,15.4
2023-05-17T13:26:06.838Z,15.4
2023-05-17T13:27:06.091Z,15.4
2023-05-17T13:28:06.470Z,15.4
2023-05-17T13:29:06.574Z,15.4
2023-05-17T13:30:06.923Z,15.4
2023-05-17T13:31:06.171Z,15.4
2023-05-17T13:32:06.322Z,15.2
2023-05-17T13:33:06.740Z,15.2
2023-05-17T13:34:06.895Z,15.2
2023-05-17T13:35:06.289Z,15.1
2023-05-17T13:36:06.595Z,15.1
2023-05-17T13:37:09.547Z,15.2
2023-05-17T13:39:06.273Z,15.2
2023-05-17T13:40:07.106Z,15.2
2023-05-17T13:41:06.959Z,15.2
2023-05-17T13:44:06.259Z,15.2
2023-05-17T13:45:06.164Z,15.3
2023-05-17T13:46:06.439Z,15.3
2023-05-17T13:47:06.744Z,15.3
2023-05-17T13:48:07.526Z,15.3
2023-05-17T13:49:06.333Z,15.3
2023-05-17T13:50:06.411Z,15.3
2023-05-17T13:51:06.313Z,15.2
2023-05-17T13:53:06.051Z,15.2
2023-05-17T13:54:09.415Z,15.1
2023-05-17T13:57:05.799Z,15.2
2023-05-17T13:58:06.357Z,15.3
2023-05-17T13:59:05.480Z,15.3
2023-05-17T14:00:06.448Z,15.2
2023-05-17T14:01:06.062Z,15.2
2023-05-17T14:02:05.035Z,15
2023-05-17T14:03:06.624Z,15.3
2023-05-17T14:04:06.380Z,15.4
2023-05-17T14:05:05.029Z,15.5
2023-05-17T14:06:07.437Z,15.5
2023-05-17T14:07:07.091Z,15.5
2023-05-17T14:08:06.853Z,15.4
2023-05-17T14:10:07.288Z,17
2023-05-17T14:11:06.758Z,15.2
2023-05-17T14:12:06.918Z,15.2
2023-05-17T14:13:05.928Z,15
2023-05-17T14:14:06.815Z,15
2023-05-17T14:15:06.914Z,15
2023-05-17T14:16:06.296Z,14.9
2023-05-17T14:17:06.354Z,14.9
2023-05-17T14:18:06.933Z,14.8
2023-05-17T14:19:09.269Z,14.7
2023-05-17T14:22:06.982Z,14.6
2023-05-17T14:23:06.128Z,14.6
2023-05-17T14:24:06.427Z,14.7
2023-05-17T14:25:05.677Z,14.6
2023-05-17T14:26:06.633Z,14.7
2023-05-17T14:27:06.515Z,14.7
2023-05-17T14:31:06.541Z,14.8
2023-05-17T14:32:06.406Z,15
2023-05-17T14:33:06.922Z,15
2023-05-17T14:34:06.953Z,15
2023-05-17T14:35:06.327Z,15
2023-05-17T14:36:06.407Z,15
2023-05-17T14:37:06.739Z,15
2023-05-17T14:38:06.194Z,15
2023-05-17T14:39:06.225Z,15.2
2023-05-17T14:40:09.171Z,15.3
2023-05-17T14:42:06.378Z,15.5
2023-05-17T14:43:06.308Z,15.4
2023-05-17T14:44:06.871Z,15.4
2023-05-17T14:45:06.274Z,15.5
2023-05-17T14:46:06.539Z,15.5
2023-05-17T14:47:06.449Z,15.5
2023-05-17T14:48:06.906Z,15.6
2023-05-17T14:49:07.124Z,15.6
2023-05-17T14:50:06.381Z,15.5
2023-05-17T14:51:06.593Z,15.5
2023-05-17T14:52:06.796Z,15.5
2023-05-17T14:53:06.068Z,15.5
2023-05-17T14:54:06.581Z,15.5
2023-05-17T14:55:06.909Z,15.5
2023-05-17T14:56:06.775Z,15.5
2023-05-17T14:57:06.166Z,15.3
2023-05-17T14:58:06.450Z,15.2
2023-05-17T14:59:06.058Z,15.2
2023-05-17T15:00:06.337Z,14.9
2023-05-17T15:01:10.237Z,14.8
2023-05-17T15:04:07.473Z,14.7
2023-05-17T15:05:06.661Z,14.5
2023-05-17T15:08:06.799Z,14.4
2023-05-17T15:09:06.986Z,14.3
2023-05-17T15:10:06.339Z,14.3
2023-05-17T15:11:06.619Z,14.3
2023-05-17T15:12:06.877Z,14.3
2023-05-17T15:13:06.205Z,14.3
2023-05-17T15:14:06.622Z,14.3
2023-05-17T15:15:06.887Z,14.4
2023-05-17T15:16:06.637Z,14.5
2023-05-17T15:17:07.086Z,14
2023-05-17T15:18:06.353Z,14.6
2023-05-17T15:19:07.062Z,14.7
2023-05-17T15:20:06.344Z,14.7
2023-05-17T15:21:06.347Z,14.7
2023-05-17T15:22:06.366Z,14.7
2023-05-17T15:23:06.403Z,14.7
2023-05-17T15:24:06.244Z,14.7
2023-05-17T15:25:06.647Z,14.6
2023-05-17T15:26:06.159Z,14.6
2023-05-17T15:27:06.183Z,14.6
2023-05-17T15:28:05.713Z,14.6
2023-05-17T15:29:06.254Z,14.5
2023-05-17T15:30:06.430Z,14.5
2023-05-17T15:31:06.115Z,14.5
2023-05-17T15:32:05.948Z,14.6
2023-05-17T15:33:06.685Z,14.6
2023-05-17T15:34:06.717Z,14.6
2023-05-17T15:35:05.919Z,14.6
2023-05-17T15:36:06.270Z,14.6
2023-05-17T15:37:05.587Z,14.6
2023-05-17T15:38:06.170Z,14.7
2023-05-17T15:39:06.286Z,14.6
2023-05-17T15:40:06.666Z,14.6
2023-05-17T15:41:05.845Z,14.6
2023-05-17T15:42:05.925Z,16
2023-05-17T15:43:06.334Z,15
2023-05-17T15:44:06.398Z,14.4
2023-05-17T15:45:05.831Z,14.4
2023-05-17T15:46:06.026Z,14.3
2023-05-17T15:47:06.230Z,14.2
2023-05-17T15:48:06.367Z,14.1
2023-05-17T15:49:06.652Z,14
2023-05-17T15:50:05.884Z,14
2023-05-17T15:51:06.160Z,14
2023-05-17T15:52:06.124Z,14
2023-05-17T15:53:06.666Z,14
2023-05-17T15:54:05.999Z,14
2023-05-17T15:55:06.063Z,14